Terminal Aerodrome Forecast
Issued by NWS Twin Cities, MN

Home | Current Version | Previous Version | Text Only | Print | Product List | Glossary On
Versions: 1 2 3 4 5 6 7 8 9 10 11 12 13 14 15 16 17
310
FTUS43 KMPX 061732
TAFEAU
TAF
KEAU 061732Z 0618/0718 22008KT P6SM SCT015 BKN150
     FM070000 21011KT P6SM OVC070 WS020/26040KT
     FM071200 24012KT P6SM BKN050=

USA.gov is the U.S. government's official web portal to all federal, state and local government web resources and services.